Time;durP1;ratioP1;P1;durP2;ratioP2;P2;SDS_P1;SDS_P2;PMS_P1;PMS_P2;Temp;Humidity;BMP_temperature;BMP_pressure;BME280_temperature;BME280_humidity;BME280_pressure;Samples;Min_cycle;Max_cycle;Signal;HPM_P1;HPM_P2
2022/07/06 00:00:17;;;;;;;13.18;9.27;;;;;;;20.36;72.46;94768.78;5130584;27;20028;-75
2022/07/06 00:02:43;;;;;;;11.10;8.77;;;;;;;20.31;72.42;94766.72;5129839;27;20039;-75
2022/07/06 00:05:08;;;;;;;11.00;9.48;;;;;;;20.20;72.46;94754.84;5129737;27;20036;-74
2022/07/06 00:07:34;;;;;;;10.75;9.35;;;;;;;20.22;72.31;94750.19;5132673;27;20030;-74
2022/07/06 00:09:59;;;;;;;10.73;9.60;;;;;;;20.12;72.51;94746.25;5129577;27;20034;-74
2022/07/06 00:12:24;;;;;;;11.85;10.75;;;;;;;20.10;73.09;94759.59;5138879;27;20028;-74
2022/07/06 00:14:50;;;;;;;12.07;11.07;;;;;;;19.99;72.05;94773.28;5134614;27;20084;-74
2022/07/06 00:17:15;;;;;;;13.35;12.18;;;;;;;19.69;72.41;94770.69;5139127;27;20027;-74
2022/07/06 00:19:41;;;;;;;14.13;12.90;;;;;;;19.49;73.32;94772.25;5093402;28;20095;-75
2022/07/06 00:22:07;;;;;;;14.05;12.75;;;;;;;19.41;73.99;94778.41;5128650;27;20400;-74
2022/07/06 00:24:32;;;;;;;14.63;13.15;;;;;;;19.27;75.09;94761.59;5128742;27;20484;-75
2022/07/06 00:26:57;;;;;;;14.07;12.88;;;;;;;19.30;75.60;94777.03;5140920;27;20499;-74
2022/07/06 00:29:23;;;;;;;14.32;12.93;;;;;;;19.22;76.49;94771.88;5125118;28;20100;-75
2022/07/06 00:31:48;;;;;;;14.93;13.43;;;;;;;19.25;76.63;94781.22;5131701;27;20049;-75
2022/07/06 00:34:14;;;;;;;14.63;13.23;;;;;;;19.25;76.83;94782.06;5129022;27;20035;-75
2022/07/06 00:36:39;;;;;;;14.68;13.25;;;;;;;19.28;76.79;94797.50;5119872;27;20023;-75
2022/07/06 00:39:05;;;;;;;14.98;13.68;;;;;;;19.29;77.09;94793.84;5147521;27;20038;-75
2022/07/06 00:41:30;;;;;;;14.30;13.15;;;;;;;19.39;77.00;94799.69;5145937;27;20420;-75
2022/07/06 00:43:56;;;;;;;13.93;12.52;;;;;;;19.50;76.83;94810.75;5147096;27;20442;-74
2022/07/06 00:46:26;;;;;;;12.63;11.38;;;;;;;19.56;76.88;94807.41;5142749;27;20032;-75
2022/07/06 00:48:51;;;;;;;13.03;11.17;;;;;;;19.62;77.04;94806.66;5127993;27;20036;-74
2022/07/06 00:51:17;;;;;;;13.50;11.95;;;;;;;19.66;76.61;94796.59;5127917;27;20031;-75
2022/07/06 00:53:42;;;;;;;14.13;11.43;;;;;;;19.66;76.21;94786.06;5107008;28;20433;-74
2022/07/06 00:56:08;;;;;;;12.38;10.82;;;;;;;19.76;76.04;94790.06;5106897;27;20035;-75
2022/07/06 00:58:34;;;;;;;11.57;10.38;;;;;;;19.76;75.12;94786.59;5115940;27;20114;-75
2022/07/06 01:00:59;;;;;;;12.45;10.60;;;;;;;19.83;75.57;94790.13;5102035;27;20046;-74
2022/07/06 01:03:24;;;;;;;10.80;9.65;;;;;;;19.93;75.64;94784.56;5100536;27;20027;-75
2022/07/06 01:05:50;;;;;;;10.95;9.85;;;;;;;19.91;75.07;94786.56;5134316;27;20023;-75
2022/07/06 01:08:16;;;;;;;14.45;10.18;;;;;;;19.84;75.35;94783.88;5132729;27;20054;-75
2022/07/06 01:10:41;;;;;;;11.82;10.07;;;;;;;19.81;75.72;94773.69;5080261;28;20097;-75
2022/07/06 01:13:07;;;;;;;11.65;10.40;;;;;;;19.81;75.66;94769.22;5106512;28;20036;-75
2022/07/06 01:15:32;;;;;;;11.93;10.73;;;;;;;19.71;75.43;94749.44;5130604;27;20027;-75
2022/07/06 01:17:58;;;;;;;12.27;10.70;;;;;;;19.75;75.51;94762.06;5086016;28;20047;-75
2022/07/06 01:20:24;;;;;;;12.50;10.15;;;;;;;19.76;75.46;94763.69;5092273;28;20110;-74
2022/07/06 01:22:50;;;;;;;12.38;10.45;;;;;;;19.78;76.26;94766.13;5126011;27;20027;-74
2022/07/06 01:25:16;;;;;;;12.00;10.63;;;;;;;19.75;76.23;94756.81;5112776;28;20023;-75
2022/07/06 01:27:42;;;;;;;12.15;10.77;;;;;;;19.79;76.03;94760.69;5112702;27;20444;-74
2022/07/06 01:30:12;;;;;;;12.13;10.93;;;;;;;19.74;75.76;94749.06;5098286;27;20046;-75
2022/07/06 01:32:38;;;;;;;15.63;11.10;;;;;;;19.75;75.82;94761.22;5132654;27;20027;-75
2022/07/06 01:35:05;;;;;;;12.93;11.55;;;;;;;19.73;76.17;94761.44;5115692;27;20521;-75
2022/07/06 01:37:30;;;;;;;12.52;11.32;;;;;;;19.62;76.41;94744.25;5112969;27;20047;-75
2022/07/06 01:40:00;;;;;;;12.85;11.55;;;;;;;19.68;76.18;94760.34;5097478;27;20536;-75
2022/07/06 01:42:25;;;;;;;16.27;11.85;;;;;;;19.63;76.15;94753.78;5131796;27;20076;-75
2022/07/06 01:44:51;;;;;;;15.05;10.98;;;;;;;19.64;76.43;94760.69;5112006;27;20117;-75
2022/07/06 01:47:16;;;;;;;14.45;11.57;;;;;;;19.59;76.92;94747.25;5080937;28;20023;-75
2022/07/06 01:49:42;;;;;;;15.10;11.25;;;;;;;19.71;77.14;94763.44;5101673;27;20036;-75
2022/07/06 01:52:07;;;;;;;14.02;12.40;;;;;;;19.78;76.83;94760.84;5089033;27;20042;-75
2022/07/06 02:15:16;;;;;;;15.45;13.38;;;;;;;19.95;75.67;94780.75;5148949;27;20397;-78
2022/07/06 02:17:41;;;;;;;15.73;12.52;;;;;;;19.82;75.45;94778.75;5129454;27;20515;-78
2022/07/06 02:20:07;;;;;;;14.27;12.43;;;;;;;19.77;75.70;94786.41;5128244;28;20042;-78
2022/07/06 02:22:33;;;;;;;16.98;12.50;;;;;;;19.76;76.14;94786.59;5110536;28;20023;-78
2022/07/06 02:24:58;;;;;;;15.80;13.48;;;;;;;19.69;76.26;94791.78;5110935;28;20028;-79
2022/07/06 02:27:24;;;;;;;13.50;12.20;;;;;;;19.63;76.71;94795.13;5110543;28;20482;-78
2022/07/06 02:29:50;;;;;;;16.05;12.32;;;;;;;19.64;76.58;94802.84;5109871;27;20031;-79
2022/07/06 02:32:16;;;;;;;16.63;11.90;;;;;;;19.57;76.46;94791.41;5128937;27;20023;-79
2022/07/06 02:34:41;;;;;;;14.45;13.05;;;;;;;19.51;76.11;94776.31;5107074;28;20043;-79
2022/07/06 02:37:07;;;;;;;13.73;12.07;;;;;;;19.54;75.94;94781.22;5135032;27;20240;-79
2022/07/06 02:39:32;;;;;;;15.25;11.90;;;;;;;19.57;75.40;94786.13;5095721;28;20081;-78
2022/07/06 02:41:58;;;;;;;13.07;11.77;;;;;;;19.58;75.90;94790.38;5093489;28;20032;-78
2022/07/06 02:44:23;;;;;;;12.57;10.95;;;;;;;19.62;75.38;94793.50;5127260;28;20043;-79
2022/07/06 02:46:48;;;;;;;14.80;11.32;;;;;;;19.59;75.39;94789.41;5127421;28;20027;-79
2022/07/06 02:49:14;;;;;;;12.10;10.80;;;;;;;19.62;74.96;94788.22;5110444;28;20389;-79
2022/07/06 02:51:39;;;;;;;12.15;10.77;;;;;;;19.59;74.93;94778.88;5127265;28;20496;-78
2022/07/06 02:54:05;;;;;;;12.38;10.85;;;;;;;19.57;74.39;94782.69;5106433;28;20047;-79
2022/07/06 02:56:30;;;;;;;12.35;10.60;;;;;;;19.49;74.24;94775.69;5089776;28;20031;-78
2022/07/06 02:58:56;;;;;;;15.85;10.55;;;;;;;19.41;74.03;94775.78;5089627;28;20512;-79
2022/07/06 03:01:21;;;;;;;10.75;9.75;;;;;;;19.40;74.10;94779.41;5109736;27;20030;-78
2022/07/06 03:03:47;;;;;;;11.48;10.27;;;;;;;19.34;74.36;94767.78;5127380;27;20035;-78
2022/07/06 03:06:12;;;;;;;11.38;10.27;;;;;;;19.29;74.61;94761.44;5126503;28;20057;-79
2022/07/06 03:08:38;;;;;;;15.05;10.75;;;;;;;19.23;74.61;94757.72;5126734;28;20038;-78
2022/07/06 03:11:03;;;;;;;12.38;10.30;;;;;;;19.23;74.36;94757.72;5109944;28;20080;-78
2022/07/06 03:13:28;;;;;;;13.98;10.80;;;;;;;19.17;74.69;94761.88;5126776;28;20051;-78
2022/07/06 03:15:54;;;;;;;13.15;11.05;;;;;;;19.18;75.37;94767.97;5094177;28;20032;-78
2022/07/06 03:18:20;;;;;;;10.70;9.60;;;;;;;19.10;74.89;94773.31;5092527;28;20125;-78
2022/07/06 03:20:45;;;;;;;10.73;9.65;;;;;;;19.02;75.13;94774.22;5092765;28;20024;-78
2022/07/06 03:23:11;;;;;;;10.80;9.57;;;;;;;18.98;75.09;94776.41;5093547;28;20064;-78
2022/07/06 03:25:36;;;;;;;12.98;9.93;;;;;;;19.02;74.91;94778.66;5095683;28;20048;-78
2022/07/06 03:28:02;;;;;;;13.98;10.88;;;;;;;18.96;74.76;94780.19;5095832;28;20035;-78
2022/07/06 03:30:27;;;;;;;11.68;10.43;;;;;;;18.91;75.13;94782.53;5112997;28;20071;-79
2022/07/06 03:32:53;;;;;;;11.00;9.88;;;;;;;18.87;75.00;94794.44;5092000;28;20032;-78
2022/07/06 03:35:18;;;;;;;11.57;10.45;;;;;;;18.91;75.45;94807.03;5092357;28;20529;-78
2022/07/06 03:37:44;;;;;;;13.55;9.57;;;;;;;18.89;74.69;94795.09;5092283;28;20036;-78
2022/07/06 03:40:10;;;;;;;12.95;10.30;;;;;;;18.89;75.17;94793.28;5084493;28;20032;-78
2022/07/06 03:42:36;;;;;;;12.68;9.52;;;;;;;18.91;75.75;94800.97;5108951;28;20024;-78
2022/07/06 03:45:02;;;;;;;11.15;9.73;;;;;;;18.88;75.36;94794.25;5065310;28;20089;-78
2022/07/06 03:47:28;;;;;;;12.60;9.18;;;;;;;18.86;74.83;94800.69;5075262;28;20070;-78
2022/07/06 03:49:53;;;;;;;11.10;9.02;;;;;;;18.87;75.44;94804.97;5074638;28;20032;-78
2022/07/06 03:52:19;;;;;;;15.05;9.05;;;;;;;18.81;75.63;94803.06;5096313;28;20028;-78
2022/07/06 03:54:44;;;;;;;11.60;9.20;;;;;;;18.84;75.94;94800.88;5112119;28;20038;-79
2022/07/06 03:57:11;;;;;;;10.93;9.63;;;;;;;18.83;75.91;94795.78;5095318;28;20031;-78
2022/07/06 03:59:36;;;;;;;10.63;9.15;;;;;;;18.83;75.48;94804.47;5112137;28;20465;-78
2022/07/06 04:02:02;;;;;;;15.40;9.15;;;;;;;18.82;75.35;94817.84;5112254;28;20042;-78
2022/07/06 04:04:27;;;;;;;13.38;9.07;;;;;;;18.79;75.87;94812.94;5111614;28;20039;-78
2022/07/06 04:06:53;;;;;;;11.32;8.88;;;;;;;18.84;75.92;94802.69;5112002;28;20024;-78
2022/07/06 04:09:18;;;;;;;10.32;9.07;;;;;;;18.89;75.78;94803.78;5111993;28;20032;-79
2022/07/06 04:11:43;;;;;;;15.88;9.05;;;;;;;18.94;75.78;94803.25;5101823;28;20521;-79
2022/07/06 04:14:09;;;;;;;9.35;8.27;;;;;;;19.25;74.81;94807.56;5093874;28;20051;-79
2022/07/06 04:16:34;;;;;;;11.70;9.23;;;;;;;19.89;73.29;94814.91;5091798;28;20034;-79
2022/07/06 04:19:00;;;;;;;13.88;9.95;;;;;;;20.29;70.82;94821.47;5112240;28;20034;-79
2022/07/06 04:21:25;;;;;;;12.48;8.90;;;;;;;20.61;69.26;94808.81;5111590;28;20035;-79
2022/07/06 04:23:51;;;;;;;9.98;8.85;;;;;;;21.08;68.55;94820.59;5111862;28;20035;-79
2022/07/06 04:26:16;;;;;;;12.50;9.00;;;;;;;21.64;67.12;94808.19;5076728;28;20028;-79
2022/07/06 04:28:42;;;;;;;13.18;7.78;;;;;;;22.46;64.84;94818.91;5110912;28;20031;-80
2022/07/06 04:31:07;;;;;;;11.65;7.82;;;;;;;23.19;63.40;94814.50;5077538;28;20039;-79
2022/07/06 04:33:34;;;;;;;9.70;7.40;;;;;;;24.03;60.81;94810.25;5090765;28;20032;-79
2022/07/06 04:35:59;;;;;;;12.93;6.95;;;;;;;24.41;58.79;94811.34;5108481;28;20062;-79
2022/07/06 04:38:24;;;;;;;9.02;6.40;;;;;;;25.27;56.05;94813.44;5105028;28;20145;-79
2022/07/06 04:40:50;;;;;;;10.98;6.97;;;;;;;25.74;54.92;94819.13;5112631;27;20039;-79
2022/07/06 04:43:15;;;;;;;7.78;6.63;;;;;;;26.23;51.97;94806.69;5108475;28;20057;-79
2022/07/06 04:45:41;;;;;;;7.68;6.80;;;;;;;26.22;51.05;94796.28;5093366;28;20508;-79
2022/07/06 04:48:08;;;;;;;9.85;7.53;;;;;;;26.22;49.96;94815.72;5108952;28;20038;-80
2022/07/06 04:50:33;;;;;;;8.98;7.40;;;;;;;25.79;51.79;94813.91;5112018;28;20034;-80
2022/07/06 04:52:59;;;;;;;10.90;7.32;;;;;;;24.92;53.24;94819.19;5111346;27;20122;-80
2022/07/06 04:55:24;;;;;;;10.20;6.85;;;;;;;24.72;54.10;94829.94;5112300;28;20027;-79
2022/07/06 04:57:51;;;;;;;8.43;6.90;;;;;;;24.67;56.00;94837.75;5113263;27;20062;-79
2022/07/06 05:00:17;;;;;;;8.85;7.75;;;;;;;24.64;56.98;94845.31;5110058;28;20016;-79
2022/07/06 05:02:42;;;;;;;11.25;7.07;;;;;;;24.72;55.85;94853.03;5092361;28;20077;-79
2022/07/06 05:05:09;;;;;;;9.23;6.93;;;;;;;24.55;56.17;94859.88;5104833;28;20034;-79
2022/07/06 05:07:39;;;;;;;10.15;6.65;;;;;;;24.50;55.09;94858.66;5109401;28;20020;-79
2022/07/06 05:10:13;;;;;;;8.63;6.30;;;;;;;24.38;56.32;94870.97;5109000;28;20084;-79
2022/07/06 05:12:39;;;;;;;9.60;5.97;;;;;;;24.08;55.88;94871.47;5093037;28;20112;-79
2022/07/06 05:15:05;;;;;;;7.75;6.13;;;;;;;23.77;55.93;94879.31;5091051;28;20052;-79
2022/07/06 05:17:30;;;;;;;9.32;6.47;;;;;;;23.61;55.90;94883.19;5107105;28;20023;-79
2022/07/06 05:19:56;;;;;;;8.02;7.18;;;;;;;23.33;55.37;94870.16;5091834;28;20756;-79
2022/07/06 05:22:22;;;;;;;9.95;7.57;;;;;;;23.11;57.75;94886.25;5064075;28;20119;-79
2022/07/06 05:24:47;;;;;;;10.93;7.97;;;;;;;23.09;57.65;94880.31;5094769;28;20104;-79
2022/07/06 05:27:12;;;;;;;8.63;7.72;;;;;;;23.00;56.89;94886.03;5111035;28;20389;-79
2022/07/06 05:29:38;;;;;;;9.07;7.93;;;;;;;22.88;57.43;94891.09;5061803;28;20409;-79
2022/07/06 05:32:04;;;;;;;9.20;8.07;;;;;;;22.74;58.00;94884.94;5085347;28;20086;-80
2022/07/06 05:34:29;;;;;;;11.48;8.73;;;;;;;22.42;57.94;94897.88;5096537;28;20036;-79
2022/07/06 05:36:56;;;;;;;12.60;8.30;;;;;;;22.33;58.71;94898.25;5104433;28;20046;-82
2022/07/06 05:39:22;;;;;;;10.40;8.20;;;;;;;22.29;60.11;94900.50;5089150;28;20028;-80
2022/07/06 05:41:48;;;;;;;13.45;8.25;;;;;;;22.23;60.37;94888.88;5087243;28;20040;-80
2022/07/06 05:44:13;;;;;;;9.68;8.40;;;;;;;22.17;59.07;94889.59;5089252;28;20039;-80
2022/07/06 05:46:39;;;;;;;13.30;8.70;;;;;;;22.10;60.50;94888.78;5087379;28;20028;-80
2022/07/06 05:51:49;;;;;;;10.05;8.07;;;;;;;21.68;61.23;94902.97;5086837;28;20050;-80
2022/07/06 05:54:15;;;;;;;8.90;7.72;;;;;;;21.48;60.64;94897.53;5089858;28;20039;-80
2022/07/06 05:56:40;;;;;;;10.57;8.07;;;;;;;21.39;61.26;94897.66;5088930;28;20408;-80
2022/07/06 05:59:05;;;;;;;8.85;7.80;;;;;;;21.02;61.19;94874.19;5084628;28;20032;-80
2022/07/06 06:01:31;;;;;;;11.50;7.60;;;;;;;21.02;61.98;94876.81;5078869;28;20036;-80
2022/07/06 06:03:57;;;;;;;10.77;7.78;;;;;;;21.15;62.16;94896.25;5087140;28;20020;-80
2022/07/06 06:06:22;;;;;;;8.65;7.55;;;;;;;20.99;61.67;94891.22;5088068;28;20553;-79
2022/07/06 06:08:48;;;;;;;11.00;8.77;;;;;;;21.12;62.37;94898.47;5052802;28;20040;-79
2022/07/06 06:11:13;;;;;;;10.95;8.60;;;;;;;21.01;61.67;94872.56;5079498;28;20063;-80
2022/07/06 06:13:39;;;;;;;13.50;8.32;;;;;;;21.23;61.93;94907.66;5104807;28;20566;-80
2022/07/06 06:16:04;;;;;;;11.93;8.98;;;;;;;21.20;62.46;94898.28;5093324;28;20020;-79
2022/07/06 06:18:30;;;;;;;10.18;8.45;;;;;;;21.15;61.51;94903.34;5089473;28;20036;-80
2022/07/06 06:20:56;;;;;;;10.95;9.25;;;;;;;21.17;62.54;94896.03;5094356;28;20023;-79
2022/07/06 06:23:21;;;;;;;12.65;8.82;;;;;;;21.01;62.64;94886.56;5110324;28;20035;-79
2022/07/06 06:25:47;;;;;;;9.98;8.93;;;;;;;21.10;62.44;94887.25;5097564;28;20121;-78
2022/07/06 06:28:12;;;;;;;11.07;8.35;;;;;;;21.15;60.62;94884.88;5088900;28;20036;-78
2022/07/06 06:30:38;;;;;;;9.20;7.97;;;;;;;21.17;61.76;94888.13;5090597;28;20035;-78
2022/07/06 06:33:10;;;;;;;10.55;7.95;;;;;;;21.24;61.97;94896.91;5086139;28;20044;-78
2022/07/06 06:35:36;;;;;;;9.52;7.70;;;;;;;21.34;60.81;94894.78;5088914;28;20036;-78
2022/07/06 06:38:01;;;;;;;9.80;8.05;;;;;;;21.37;61.74;94894.44;5087340;28;20542;-78
2022/07/06 06:40:27;;;;;;;14.02;8.88;;;;;;;21.39;61.69;94892.38;5089449;28;20035;-78
2022/07/06 06:42:52;;;;;;;9.43;8.15;;;;;;;21.45;60.80;94887.34;5069774;28;20481;-78
2022/07/06 06:45:18;;;;;;;10.23;8.93;;;;;;;21.47;61.02;94891.44;5087263;28;20461;-78
2022/07/06 06:47:43;;;;;;;8.88;7.97;;;;;;;21.47;60.55;94872.13;5086797;28;20028;-78
2022/07/06 06:50:09;;;;;;;10.45;8.23;;;;;;;21.62;62.03;94889.53;5082457;28;20603;-78
2022/07/06 06:52:34;;;;;;;10.88;8.48;;;;;;;21.59;59.62;94883.78;5073684;28;20085;-78
2022/07/06 06:55:00;;;;;;;10.13;7.82;;;;;;;21.61;60.96;94885.22;5074047;28;20065;-80
2022/07/06 06:57:25;;;;;;;12.25;8.75;;;;;;;21.58;61.30;94879.50;5092531;28;20404;-79
2022/07/06 06:59:51;;;;;;;14.73;10.63;;;;;;;21.70;63.32;94882.44;5090920;28;20058;-79
2022/07/06 07:02:16;;;;;;;13.15;8.95;;;;;;;21.67;61.40;94878.34;5074212;28;20025;-79
2022/07/06 07:04:42;;;;;;;13.43;9.43;;;;;;;21.68;62.99;94885.28;5092729;28;20093;-78
2022/07/06 07:07:07;;;;;;;10.35;8.98;;;;;;;21.67;61.10;94886.28;5089182;28;20027;-78
2022/07/06 07:09:33;;;;;;;11.98;9.40;;;;;;;21.48;61.90;94847.31;5089787;28;20035;-78
2022/07/06 07:11:58;;;;;;;10.70;9.07;;;;;;;21.70;61.94;94883.25;5087392;28;20413;-78
2022/07/06 07:14:24;;;;;;;12.35;9.45;;;;;;;21.78;62.02;94880.44;5092498;28;20063;-78
2022/07/06 07:16:49;;;;;;;11.13;9.68;;;;;;;21.88;62.46;94879.31;5089863;28;20397;-78
2022/07/06 07:19:15;;;;;;;10.95;9.80;;;;;;;21.97;61.73;94884.22;5086542;28;20570;-78
2022/07/06 07:21:40;;;;;;;10.88;9.48;;;;;;;22.01;62.53;94871.44;5085886;28;20020;-78
2022/07/06 07:24:07;;;;;;;11.52;9.70;;;;;;;21.81;60.35;94848.34;5091266;28;20061;-78
2022/07/06 07:26:33;;;;;;;12.15;10.02;;;;;;;21.93;59.46;94843.31;5091227;28;20039;-79
2022/07/06 07:28:58;;;;;;;11.90;10.13;;;;;;;22.15;59.64;94869.66;5090352;28;20044;-85
2022/07/06 07:31:24;;;;;;;11.77;9.85;;;;;;;22.09;59.82;94853.56;5084253;28;20023;-78
2022/07/06 07:33:49;;;;;;;13.90;10.65;;;;;;;22.37;60.45;94880.97;5099656;28;20043;-78
2022/07/06 07:36:15;;;;;;;11.48;10.27;;;;;;;22.44;60.60;94874.69;5080710;28;20028;-78
2022/07/06 07:38:40;;;;;;;11.50;10.35;;;;;;;22.60;60.61;94875.34;5089287;28;20484;-78
2022/07/06 07:41:06;;;;;;;14.57;11.05;;;;;;;22.78;60.03;94878.22;5090938;28;20028;-78
2022/07/06 07:43:32;;;;;;;15.13;10.95;;;;;;;22.89;58.50;94868.88;5093451;28;20441;-78
2022/07/06 07:45:57;;;;;;;15.05;10.75;;;;;;;22.73;57.59;94833.00;5069732;28;20035;-78
2022/07/06 07:48:22;;;;;;;14.10;10.70;;;;;;;22.97;57.01;94879.31;5089868;28;20035;-77
2022/07/06 07:50:48;;;;;;;13.10;11.13;;;;;;;22.90;57.54;94878.44;5091423;28;20024;-78
2022/07/06 07:53:14;;;;;;;13.07;10.50;;;;;;;22.78;57.09;94859.69;5093069;28;20492;-78
2022/07/06 07:55:39;;;;;;;11.80;10.55;;;;;;;22.90;57.13;94878.44;5088940;28;20051;-78
2022/07/06 07:58:05;;;;;;;12.65;10.45;;;;;;;22.93;58.78;94873.56;5090174;28;20496;-78
2022/07/06 08:00:31;;;;;;;12.90;10.90;;;;;;;23.00;58.07;94852.41;5087345;28;20500;-77
2022/07/06 08:02:57;;;;;;;11.68;10.13;;;;;;;23.12;55.44;94864.06;5091136;28;20036;-78
2022/07/06 08:05:22;;;;;;;11.93;10.60;;;;;;;23.25;55.74;94870.38;5093137;28;20024;-78
2022/07/06 08:07:48;;;;;;;13.50;10.75;;;;;;;23.19;57.76;94854.25;5096223;28;20533;-78
2022/07/06 08:10:13;;;;;;;12.63;10.20;;;;;;;23.10;56.38;94831.66;5090216;28;20489;-78
2022/07/06 08:12:39;;;;;;;15.75;10.75;;;;;;;23.28;56.18;94838.16;5081353;28;20028;-78
2022/07/06 08:15:05;;;;;;;12.10;10.80;;;;;;;23.42;55.44;94866.28;5092018;28;20099;-79
2022/07/06 08:17:30;;;;;;;13.30;11.13;;;;;;;23.51;57.66;94870.34;5096624;28;20048;-78
2022/07/06 08:19:56;;;;;;;12.18;10.77;;;;;;;23.50;56.76;94844.84;5089838;28;20032;-78
2022/07/06 08:22:22;;;;;;;16.27;11.00;;;;;;;23.71;54.74;94857.09;5085292;28;20028;-78
2022/07/06 08:24:47;;;;;;;13.25;11.07;;;;;;;23.87;58.01;94866.44;5084621;28;20032;-78
2022/07/06 08:27:13;;;;;;;13.30;10.27;;;;;;;24.03;55.68;94870.47;5088759;28;20032;-78
2022/07/06 08:29:38;;;;;;;10.73;9.57;;;;;;;24.00;52.91;94855.78;5083034;28;20062;-78
2022/07/06 08:32:04;;;;;;;11.07;9.98;;;;;;;24.00;53.92;94866.41;5089773;28;20122;-78
2022/07/06 08:34:30;;;;;;;11.27;10.18;;;;;;;24.07;55.22;94875.16;5073140;28;20040;-78
2022/07/06 08:36:55;;;;;;;12.85;10.15;;;;;;;24.13;53.97;94860.25;5087356;28;20569;-78
2022/07/06 08:39:21;;;;;;;11.88;9.85;;;;;;;24.21;53.82;94869.78;5088705;28;20028;-78
2022/07/06 08:41:47;;;;;;;11.93;10.27;;;;;;;23.92;51.87;94824.19;5072518;28;20024;-78
2022/07/06 08:44:14;;;;;;;14.82;10.68;;;;;;;24.01;52.85;94825.56;5087743;28;20446;-78
2022/07/06 08:46:40;;;;;;;10.63;9.52;;;;;;;24.29;53.25;94861.59;5067114;28;20142;-80
2022/07/06 08:49:08;;;;;;;14.48;10.63;;;;;;;24.38;52.70;94855.03;5089245;28;20046;-78
2022/07/06 08:51:37;;;;;;;11.60;10.43;;;;;;;24.29;53.72;94830.59;5099581;28;20473;-78
2022/07/06 08:54:03;;;;;;;12.10;10.80;;;;;;;24.59;54.75;94850.47;5091042;28;20036;-78
2022/07/06 08:56:28;;;;;;;11.50;9.88;;;;;;;24.59;52.24;94840.66;5091470;28;20034;-78
2022/07/06 08:58:54;;;;;;;11.05;9.75;;;;;;;24.80;51.69;94847.47;5070119;28;20424;-78
2022/07/06 09:01:20;;;;;;;13.20;9.35;;;;;;;25.03;52.33;94862.03;5091764;28;20489;-78
2022/07/06 09:03:45;;;;;;;10.90;9.18;;;;;;;25.18;51.34;94857.25;5086263;28;20028;-78
2022/07/06 09:06:11;;;;;;;10.45;8.43;;;;;;;25.26;49.46;94856.16;5085977;28;20410;-78
2022/07/06 09:08:36;;;;;;;8.98;8.00;;;;;;;25.36;48.34;94856.50;5067688;28;20081;-78
2022/07/06 09:11:03;;;;;;;10.48;9.40;;;;;;;25.03;49.47;94787.63;5072128;28;20084;-78
2022/07/06 09:13:28;;;;;;;10.63;9.63;;;;;;;25.56;51.32;94858.97;5093145;28;20055;-78
2022/07/06 09:15:54;;;;;;;9.52;8.52;;;;;;;25.71;50.38;94856.75;5098344;28;20106;-78
2022/07/06 09:18:21;;;;;;;10.38;9.30;;;;;;;25.70;47.88;94857.81;5094185;28;20047;-78
2022/07/06 09:20:47;;;;;;;10.25;9.00;;;;;;;25.53;47.33;94838.13;5090111;28;20055;-77
2022/07/06 09:23:15;;;;;;;14.23;9.90;;;;;;;25.56;48.99;94854.47;5091367;28;20477;-78
2022/07/06 09:25:41;;;;;;;10.68;9.57;;;;;;;25.51;48.57;94854.28;5070983;28;20497;-78
2022/07/06 09:28:06;;;;;;;12.52;10.60;;;;;;;25.49;49.69;94855.53;5080239;28;20040;-78
2022/07/06 09:30:32;;;;;;;11.55;10.40;;;;;;;25.45;49.78;94839.22;5089892;28;20036;-78
2022/07/06 09:32:58;;;;;;;11.25;9.70;;;;;;;25.52;49.66;94836.50;5089897;28;20067;-78
2022/07/06 09:35:38;;;;;;;13.35;10.43;;;;;;;25.64;49.74;94848.06;5090407;28;20024;-78
2022/07/06 09:38:04;;;;;;;10.43;9.35;;;;;;;25.68;48.88;94843.09;5085642;28;20120;-78
2022/07/06 09:40:30;;;;;;;11.82;10.63;;;;;;;25.40;50.36;94815.13;5082724;28;20028;-78
2022/07/06 09:43:15;;;;;;;10.60;9.55;;;;;;;25.66;49.40;94850.47;5088228;28;20028;-78
2022/07/06 09:45:42;;;;;;;12.35;9.93;;;;;;;25.61;49.74;94854.63;5089284;28;20493;-78
2022/07/06 09:48:27;;;;;;;12.40;11.10;;;;;;;25.50;50.46;94852.69;5089279;28;20049;-78
2022/07/06 09:51:06;;;;;;;11.43;10.23;;;;;;;25.34;50.09;94854.03;5090196;28;20093;-78
2022/07/06 09:53:34;;;;;;;12.05;10.85;;;;;;;25.18;50.63;94833.31;5083592;28;20043;-78
2022/07/06 09:56:01;;;;;;;13.07;10.93;;;;;;;25.14;50.80;94835.59;5064645;28;20047;-78
2022/07/06 09:58:27;;;;;;;13.95;10.95;;;;;;;25.00;50.95;94835.91;5077781;28;20040;-78
2022/07/06 10:00:52;;;;;;;16.05;10.82;;;;;;;25.07;51.88;94841.97;5084387;28;20051;-78
2022/07/06 10:03:18;;;;;;;12.07;10.82;;;;;;;25.10;52.27;94834.41;5067230;28;20055;-79
2022/07/06 10:05:48;;;;;;;11.60;10.38;;;;;;;25.26;52.15;94834.91;5088536;28;20017;-81
2022/07/06 10:08:14;;;;;;;13.00;10.98;;;;;;;25.08;50.72;94795.78;5074088;28;20042;-80
2022/07/06 10:10:40;;;;;;;11.45;10.32;;;;;;;25.12;49.88;94799.63;5089128;28;20352;-79
2022/07/06 10:13:06;;;;;;;13.50;10.82;;;;;;;25.24;50.64;94813.88;5091430;28;20554;-80
2022/07/06 10:15:32;;;;;;;12.98;11.77;;;;;;;25.00;49.84;94796.03;5088853;28;20032;-81
2022/07/06 10:17:58;;;;;;;12.40;10.98;;;;;;;25.08;51.25;94801.91;5072343;28;20059;-78
2022/07/06 10:20:23;;;;;;;12.63;11.43;;;;;;;25.33;50.33;94828.50;5086846;28;20101;-78
2022/07/06 10:22:49;;;;;;;15.02;12.27;;;;;;;25.46;51.38;94829.41;5082622;28;20040;-79
2022/07/06 10:25:16;;;;;;;14.23;12.18;;;;;;;25.48;51.29;94822.03;5090527;28;20107;-78
2022/07/06 10:27:42;;;;;;;12.85;11.55;;;;;;;25.71;49.74;94830.16;5072291;28;20040;-79
2022/07/06 10:30:08;;;;;;;13.98;11.95;;;;;;;25.77;49.65;94824.00;5090740;28;20077;-78
2022/07/06 10:32:33;;;;;;;13.07;11.77;;;;;;;25.80;48.93;94812.91;5073427;28;20032;-78
2022/07/06 10:34:59;;;;;;;14.55;12.35;;;;;;;25.86;49.02;94813.91;5091080;28;20081;-79
2022/07/06 10:37:25;;;;;;;13.63;12.20;;;;;;;25.79;49.68;94787.31;5087776;28;20033;-78
2022/07/06 10:42:53;;;;;;;13.68;11.38;;;;;;;26.14;47.42;94810.69;5088859;28;20043;-78
2022/07/06 10:45:21;;;;;;;12.05;10.65;;;;;;;26.23;46.98;94817.31;5092492;28;20043;-78
2022/07/06 10:47:47;;;;;;;13.07;11.70;;;;;;;26.16;46.99;94813.94;5091869;28;20047;-78
2022/07/06 10:50:13;;;;;;;11.52;10.40;;;;;;;26.08;47.09;94822.25;5053305;28;20637;-78
2022/07/06 10:52:51;;;;;;;12.48;11.27;;;;;;;26.21;47.16;94806.09;5111735;28;20028;-78
2022/07/06 10:55:32;;;;;;;14.07;11.38;;;;;;;26.32;47.18;94811.69;5092140;28;20040;-78
2022/07/06 10:57:58;;;;;;;13.30;12.05;;;;;;;26.39;48.32;94823.09;5090077;28;20032;-78
2022/07/06 11:00:24;;;;;;;13.60;12.20;;;;;;;26.42;46.42;94811.97;5090484;28;20035;-78
2022/07/06 11:02:49;;;;;;;13.90;12.40;;;;;;;26.38;47.22;94816.13;5092176;28;20413;-78
2022/07/06 11:05:40;;;;;;;13.20;12.00;;;;;;;26.42;47.01;94812.78;5071174;28;20391;-78
2022/07/06 11:08:05;;;;;;;13.13;11.82;;;;;;;26.47;47.36;94820.09;5067355;28;20035;-78
2022/07/06 11:10:46;;;;;;;14.35;12.25;;;;;;;26.49;46.95;94824.19;5083539;28;20028;-78
2022/07/06 11:13:27;;;;;;;14.95;13.27;;;;;;;26.61;47.76;94816.25;5088324;28;20052;-78
2022/07/06 11:15:52;;;;;;;14.27;12.73;;;;;;;26.70;46.81;94816.75;5074976;28;20035;-78
2022/07/06 11:18:20;;;;;;;13.30;11.93;;;;;;;26.71;46.08;94805.84;5073661;28;20036;-78
2022/07/06 11:21:18;;;;;;;12.60;11.30;;;;;;;26.81;47.00;94805.31;5090296;28;20032;-78
2022/07/06 11:23:45;;;;;;;13.05;11.60;;;;;;;26.67;45.66;94787.91;5090324;28;20040;-78
2022/07/06 11:26:11;;;;;;;13.88;12.63;;;;;;;26.79;46.29;94801.25;5068721;28;20055;-78
2022/07/06 11:28:37;;;;;;;12.57;11.43;;;;;;;26.79;44.74;94801.25;5079638;28;20477;-78
2022/07/06 11:31:02;;;;;;;13.05;11.85;;;;;;;26.70;45.24;94782.91;5086006;28;20020;-78
2022/07/06 11:33:31;;;;;;;14.90;13.30;;;;;;;26.82;45.89;94795.44;5091375;28;20038;-78
2022/07/06 11:36:19;;;;;;;15.50;13.95;;;;;;;26.89;45.94;94791.66;5089180;28;20444;-78
2022/07/06 11:38:46;;;;;;;17.50;14.70;;;;;;;26.94;45.69;94791.78;5060443;28;20028;-78
2022/07/06 11:41:13;;;;;;;13.95;12.65;;;;;;;27.04;45.18;94791.19;5067659;28;20043;-78
2022/07/06 11:43:42;;;;;;;13.77;12.48;;;;;;;27.01;44.27;94778.34;5081900;28;20044;-78